Time,TemperatureF,DewpointF,PressureIn,WindDirection,WindDirectionDegrees,WindSpeedMPH,WindSpeedGustMPH,Humidity,HourlyPrecipIn,Conditions,Clouds,dailyrainin,SoftwareType,DateUTC
2019-12-08 00:02:05,49.8,44.8,29.83,WSW,237,7,12,83,0,,,0,meteohub,2019-12-07 23:02:05,
2019-12-08 00:07:03,49.8,44.8,29.82,West,259,6,14,83,0,,,0,meteohub,2019-12-07 23:07:03,
2019-12-08 00:12:05,49.8,44.8,29.81,SSW,211,5,14,83,0,,,0,meteohub,2019-12-07 23:12:05,
2019-12-08 00:17:06,49.8,44.8,29.81,SSW,197,6,14,83,0,,,0,meteohub,2019-12-07 23:17:06,
2019-12-08 00:22:07,49.8,44.8,29.81,WSW,240,4,15,83,0,,,0,meteohub,2019-12-07 23:22:07,
2019-12-08 00:27:05,49.8,44.8,29.80,West,262,8,15,83,0,,,0,meteohub,2019-12-07 23:27:05,
2019-12-08 00:32:06,49.8,44.8,29.80,SSW,213,6,15,83,0,,,0,meteohub,2019-12-07 23:32:06,
2019-12-08 00:37:05,49.8,44.8,29.80,SSW,200,8,15,83,0,,,0,meteohub,2019-12-07 23:37:05,
2019-12-08 00:42:06,49.6,44.8,29.80,WSW,242,5,15,83,0,,,0,meteohub,2019-12-07 23:42:06,
2019-12-08 00:47:05,49.6,44.8,29.79,West,262,4,15,83,0,,,0,meteohub,2019-12-07 23:47:05,
2019-12-08 00:52:05,49.6,44.8,29.78,NNW,337,6,16,83,0,,,0,meteohub,2019-12-07 23:52:05,
2019-12-08 00:57:03,49.6,44.8,29.78,South,178,7,16,83,0,,,0,meteohub,2019-12-07 23:57:03,
2019-12-08 01:02:05,49.8,44.8,29.79,West,270,9,16,83,0,,,0,meteohub,2019-12-08 00:02:05,
2019-12-08 01:07:04,49.8,44.8,29.78,West,277,4,15,83,0,,,0,meteohub,2019-12-08 00:07:04,
2019-12-08 01:12:04,49.8,44.8,29.78,SE,136,3,15,83,0,,,0,meteohub,2019-12-08 00:12:04,
2019-12-08 01:17:04,49.8,44.8,29.78,WSW,257,6,13,83,0,,,0,meteohub,2019-12-08 00:17:04,
2019-12-08 01:22:05,49.8,44.8,29.78,South,184,13,12,83,0,,,0,meteohub,2019-12-08 00:22:05,
2019-12-08 01:27:04,49.8,44.8,29.77,SE,137,7,16,83,0,,,0,meteohub,2019-12-08 00:27:04,
2019-12-08 01:32:05,49.6,44.8,29.76,SSW,210,8,16,83,0,,,0,meteohub,2019-12-08 00:32:05,
2019-12-08 01:37:03,49.6,44.8,29.76,West,277,6,20,83,0,,,0,meteohub,2019-12-08 00:37:03,
2019-12-08 01:42:05,49.5,44.8,29.76,SW,223,9,20,84,0,,,0,meteohub,2019-12-08 00:42:05,
2019-12-08 01:47:04,49.5,44.8,29.76,South,183,8,20,84,0,,,0,meteohub,2019-12-08 00:47:04,
2019-12-08 01:52:04,49.5,44.6,29.76,SSW,207,7,20,83,0,,,0,meteohub,2019-12-08 00:52:04,
2019-12-08 01:57:04,49.5,44.6,29.75,SW,219,4,15,83,0,,,0,meteohub,2019-12-08 00:57:04,
2019-12-08 02:02:05,49.5,44.6,29.75,WNW,294,7,15,83,0,,,0,meteohub,2019-12-08 01:02:05,
2019-12-08 02:07:04,49.5,44.2,29.75,SW,223,5,15,82,0,,,0,meteohub,2019-12-08 01:07:04,
2019-12-08 02:12:05,49.5,44.2,29.75,WSW,242,9,21,82,0,,,0,meteohub,2019-12-08 01:12:05,
2019-12-08 02:17:04,49.5,44.2,29.74,SSW,202,5,21,82,0,,,0,meteohub,2019-12-08 01:17:04,
2019-12-08 02:22:04,49.5,44.2,29.74,SSW,196,5,21,82,0,,,0,meteohub,2019-12-08 01:22:04,
2019-12-08 02:27:03,49.5,43.9,29.74,WNW,284,5,16,81,0,,,0,meteohub,2019-12-08 01:27:03,
2019-12-08 02:32:05,49.5,43.9,29.73,West,263,4,15,81,0,,,0,meteohub,2019-12-08 01:32:05,
2019-12-08 02:37:04,49.5,43.9,29.73,WSW,256,3,15,81,0,,,0,meteohub,2019-12-08 01:37:04,
2019-12-08 02:42:06,49.5,43.9,29.73,SSW,209,10,20,81,0,,,0,meteohub,2019-12-08 01:42:06,
2019-12-08 02:47:04,49.5,43.9,29.73,South,178,5,20,81,0,,,0,meteohub,2019-12-08 01:47:04,
2019-12-08 02:52:04,49.5,43.9,29.73,WSW,244,5,20,81,0,,,0,meteohub,2019-12-08 01:52:04,
2019-12-08 02:57:03,49.5,43.9,29.73,WNW,292,5,13,81,0,,,0,meteohub,2019-12-08 01:57:03,
2019-12-08 03:02:06,49.5,43.9,29.73,SSE,155,4,18,81,0,,,0,meteohub,2019-12-08 02:02:06,
2019-12-08 03:07:03,49.5,43.9,29.72,WSW,251,4,18,81,0,,,0,meteohub,2019-12-08 02:07:03,
2019-12-08 03:12:05,49.5,43.9,29.72,SSE,163,7,18,81,0,,,0,meteohub,2019-12-08 02:12:05,
2019-12-08 03:17:04,49.5,43.9,29.72,WSW,258,3,16,81,0,,,0,meteohub,2019-12-08 02:17:04,
2019-12-08 03:22:05,49.5,43.9,29.72,SSW,205,10,19,81,0,,,0,meteohub,2019-12-08 02:22:05,
2019-12-08 03:27:04,49.5,43.9,29.71,WNW,299,6,21,81,0,,,0,meteohub,2019-12-08 02:27:04,
2019-12-08 03:32:05,49.6,44.1,29.71,WSW,257,5,21,81,0,,,0,meteohub,2019-12-08 02:32:05,
2019-12-08 03:37:04,49.6,44.1,29.70,SW,231,12,21,81,0,,,0,meteohub,2019-12-08 02:37:04,
2019-12-08 03:42:05,49.6,43.7,29.70,West,270,8,16,80,0,,,0,meteohub,2019-12-08 02:42:05,
2019-12-08 03:47:04,49.8,43.9,29.69,WSW,245,10,16,80,0,,,0,meteohub,2019-12-08 02:47:04,
2019-12-08 03:52:04,49.6,44.1,29.68,SSE,159,6,16,81,0,,,0,meteohub,2019-12-08 02:52:04,
2019-12-08 03:57:04,49.6,44.1,29.68,WNW,288,8,18,81,0,,,0,meteohub,2019-12-08 02:57:04,
2019-12-08 04:02:06,49.8,44.2,29.67,West,274,5,18,81,0,,,0,meteohub,2019-12-08 03:02:06,
2019-12-08 04:07:04,49.8,44.2,29.67,SW,231,7,22,81,0,,,0,meteohub,2019-12-08 03:07:04,
2019-12-08 04:12:04,49.8,44.6,29.67,ENE,57,6,22,82,0,,,0,meteohub,2019-12-08 03:12:04,
2019-12-08 04:17:05,50,44.8,29.66,SSW,200,11,22,82,0,,,0,meteohub,2019-12-08 03:17:05,
2019-12-08 04:22:05,50,44.8,29.66,WSW,255,4,18,82,0,,,0,meteohub,2019-12-08 03:22:05,
2019-12-08 04:27:04,50,44.8,29.66,WSW,257,7,18,82,0,,,0,meteohub,2019-12-08 03:27:04,
2019-12-08 04:32:05,50,45,29.65,SW,234,7,20,83,0,,,0,meteohub,2019-12-08 03:32:05,
2019-12-08 04:37:04,50.2,45.1,29.65,North,9,6,22,83,0,,,0,meteohub,2019-12-08 03:37:04,
2019-12-08 04:42:05,50,45,29.65,SW,234,8,22,83,0,,,0,meteohub,2019-12-08 03:42:05,
2019-12-08 04:47:05,50,45.3,29.64,WNW,286,5,22,84,0,,,0,meteohub,2019-12-08 03:47:05,
2019-12-08 04:52:06,50,45.3,29.64,SW,232,11,22,84,0,,,0,meteohub,2019-12-08 03:52:06,
2019-12-08 04:57:05,50,45.3,29.63,West,260,8,18,84,0,,,0,meteohub,2019-12-08 03:57:05,
2019-12-08 05:02:06,50,45.3,29.63,WSW,251,12,18,84,0,,,0,meteohub,2019-12-08 04:02:06,
2019-12-08 05:07:04,50,45.3,29.62,SW,232,10,21,84,0,,,0,meteohub,2019-12-08 04:07:04,
2019-12-08 05:12:06,50,45.3,29.62,WSW,248,7,21,84,0,,,0,meteohub,2019-12-08 04:12:06,
2019-12-08 05:17:06,50,45.3,29.61,West,274,11,21,84,0,,,0,meteohub,2019-12-08 04:17:06,
2019-12-08 05:22:06,50.2,45.5,29.62,SW,219,13,21,84,0,,,0,meteohub,2019-12-08 04:22:06,
2019-12-08 05:27:05,50.2,45.5,29.62,West,275,6,21,84,0,,,0,meteohub,2019-12-08 04:27:05,
2019-12-08 05:32:06,50.4,45.7,29.62,SW,217,7,20,84,0,,,0,meteohub,2019-12-08 04:32:06,
2019-12-08 05:37:05,50.4,45.7,29.61,SSW,210,9,20,84,0,,,0,meteohub,2019-12-08 04:37:05,
2019-12-08 05:42:06,50.4,45.7,29.60,West,269,5,20,84,0,,,0,meteohub,2019-12-08 04:42:06,
2019-12-08 05:47:06,50.5,45.9,29.60,West,260,3,16,84,0,,,0,meteohub,2019-12-08 04:47:06,
2019-12-08 05:52:06,50.5,46.2,29.60,SW,215,10,24,85,0,,,0,meteohub,2019-12-08 04:52:06,
2019-12-08 05:57:05,50.5,46.2,29.60,WSW,248,8,24,85,0,,,0,meteohub,2019-12-08 04:57:05,
2019-12-08 06:02:07,50.5,46.2,29.60,WSW,242,10,24,85,0,,,0,meteohub,2019-12-08 05:02:07,
2019-12-08 06:07:04,50.5,46.2,29.59,SW,215,6,20,85,0,,,0,meteohub,2019-12-08 05:07:04,
2019-12-08 06:12:05,50.5,46.2,29.59,NNW,330,7,20,85,0,,,0,meteohub,2019-12-08 05:12:05,
2019-12-08 06:17:07,50.5,46.6,29.59,West,270,10,20,86,0,,,0,meteohub,2019-12-08 05:17:07,
2019-12-08 06:22:07,50.5,46.6,29.58,WNW,294,6,24,86,0,,,0,meteohub,2019-12-08 05:22:07,
2019-12-08 06:27:06,50.4,46.6,29.58,SW,228,15,24,87,0,,,0,meteohub,2019-12-08 05:27:06,
2019-12-08 06:32:06,50.2,46.8,29.58,SSE,153,13,24,88,0,,,0,meteohub,2019-12-08 05:32:06,
2019-12-08 06:37:06,50,46.9,29.58,WSW,240,8,24,89,0,,,0,meteohub,2019-12-08 05:37:06,
2019-12-08 06:42:07,49.8,46.8,29.55,SW,223,15,19,89,0,,,0,meteohub,2019-12-08 05:42:07,
2019-12-08 06:47:07,49.5,46.6,29.53,SSW,208,10,19,90,0,,,0.01,meteohub,2019-12-08 05:47:07,
2019-12-08 06:52:06,49.3,46.8,29.52,West,279,8,23,91,0.02,,,0.01,meteohub,2019-12-08 05:52:06,
2019-12-08 06:57:06,49.1,46.6,29.51,ESE,108,15,23,91,0.02,,,0.02,meteohub,2019-12-08 05:57:06,
2019-12-08 07:02:07,48.9,46.4,29.51,NE,42,7,20,91,0.02,,,0.02,meteohub,2019-12-08 06:02:07,
2019-12-08 07:07:06,48.7,46.2,29.56,WSW,242,6,20,91,0.02,,,0.03,meteohub,2019-12-08 06:07:06,
2019-12-08 07:12:06,48.7,46.2,29.56,SSW,198,10,21,91,0.03,,,0.03,meteohub,2019-12-08 06:12:06,
2019-12-08 07:17:06,48.7,46.2,29.56,SW,236,6,21,91,0.03,,,0.03,meteohub,2019-12-08 06:17:06,
2019-12-08 07:22:07,48.7,46.2,29.56,NNE,28,5,20,91,0.03,,,0.03,meteohub,2019-12-08 06:22:07,
2019-12-08 07:27:05,48.7,46.2,29.56,SW,229,6,18,91,0.03,,,0.03,meteohub,2019-12-08 06:27:05,
2019-12-08 07:32:06,48.7,46.2,29.56,West,261,2,18,91,0.03,,,0.03,meteohub,2019-12-08 06:32:06,
2019-12-08 07:37:05,48.7,46.2,29.55,SSW,200,4,18,91,0.02,,,0.03,meteohub,2019-12-08 06:37:05,
2019-12-08 07:42:06,48.9,46,29.55,NW,326,7,18,90,0.02,,,0.03,meteohub,2019-12-08 06:42:06,
2019-12-08 07:47:06,48.9,46.4,29.55,WSW,244,7,18,91,0.02,,,0.03,meteohub,2019-12-08 06:47:06,
2019-12-08 07:52:06,48.9,46.4,29.55,WSW,238,9,19,91,0.02,,,0.03,meteohub,2019-12-08 06:52:06,
2019-12-08 07:57:05,49.3,46.8,29.55,NW,304,7,21,91,0.01,,,0.03,meteohub,2019-12-08 06:57:05,
2019-12-08 08:02:06,49.3,46.8,29.55,West,259,7,21,91,0.01,,,0.03,meteohub,2019-12-08 07:02:06,
2019-12-08 08:07:04,49.5,46.9,29.55,SSW,193,10,18,91,0.01,,,0.03,meteohub,2019-12-08 07:07:04,
2019-12-08 08:12:06,49.3,46.8,29.55,SW,228,10,18,91,0.01,,,0.03,meteohub,2019-12-08 07:12:06,
2019-12-08 08:17:06,49.3,47.1,29.55,West,273,5,23,92,0,,,0.03,meteohub,2019-12-08 07:17:06,
2019-12-08 08:22:06,49.1,46.9,29.54,WNW,288,6,23,92,0,,,0.03,meteohub,2019-12-08 07:22:06,
2019-12-08 08:27:05,49.1,46.9,29.54,WNW,284,6,25,92,0,,,0.03,meteohub,2019-12-08 07:27:05,
2019-12-08 08:32:06,49.1,46.9,29.53,SW,232,10,25,92,0,,,0.03,meteohub,2019-12-08 07:32:06,
2019-12-08 08:37:05,49.1,47.1,29.53,West,281,8,25,93,0,,,0.03,meteohub,2019-12-08 07:37:05,
2019-12-08 08:42:06,49.1,47.1,29.53,WSW,250,6,14,93,0,,,0.03,meteohub,2019-12-08 07:42:06,
2019-12-08 08:47:05,49.3,47.3,29.53,SW,217,10,15,93,0,,,0.03,meteohub,2019-12-08 07:47:05,
2019-12-08 08:52:05,49.3,47.3,29.53,West,259,7,15,93,0,,,0.03,meteohub,2019-12-08 07:52:05,
2019-12-08 08:57:05,49.3,47.3,29.53,South,186,6,18,93,0,,,0.03,meteohub,2019-12-08 07:57:05,
2019-12-08 09:02:06,49.5,47.5,29.54,SW,219,6,23,93,0,,,0.03,meteohub,2019-12-08 08:02:06,
2019-12-08 09:07:04,49.5,47.5,29.53,WSW,253,5,23,93,0,,,0.03,meteohub,2019-12-08 08:07:04,
2019-12-08 09:12:06,49.6,47.7,29.53,South,172,7,23,93,0,,,0.03,meteohub,2019-12-08 08:12:06,
2019-12-08 09:17:05,49.6,47.7,29.53,SSW,207,10,20,93,0,,,0.03,meteohub,2019-12-08 08:17:05,
2019-12-08 09:22:06,49.8,47.8,29.53,SSW,213,10,22,93,0,,,0.03,meteohub,2019-12-08 08:22:06,
2019-12-08 09:27:05,50,47.8,29.52,SSW,200,6,22,92,0,,,0.03,meteohub,2019-12-08 08:27:05,
2019-12-08 09:32:06,50.2,48,29.53,WNW,291,7,22,92,0,,,0.03,meteohub,2019-12-08 08:32:06,
2019-12-08 09:37:05,50.2,48,29.52,WNW,293,5,20,92,0,,,0.03,meteohub,2019-12-08 08:37:05,
2019-12-08 09:42:07,50.2,48.2,29.52,SW,215,8,20,93,0,,,0.03,meteohub,2019-12-08 08:42:07,
2019-12-08 09:47:05,50.2,48.2,29.52,West,259,8,19,93,0.01,,,0.04,meteohub,2019-12-08 08:47:05,
2019-12-08 09:52:05,50.2,48.2,29.52,SSW,207,7,19,93,0.01,,,0.04,meteohub,2019-12-08 08:52:05,
2019-12-08 09:57:05,50.2,48.6,29.52,West,279,6,16,94,0.01,,,0.04,meteohub,2019-12-08 08:57:05,
2019-12-08 10:02:07,50.2,48.6,29.52,SW,225,8,22,94,0.01,,,0.04,meteohub,2019-12-08 09:02:07,
2019-12-08 10:07:04,50.2,48.6,29.52,West,262,9,22,94,0.01,,,0.04,meteohub,2019-12-08 09:07:04,
2019-12-08 10:12:05,50.2,48.6,29.52,SW,234,3,22,94,0.01,,,0.05,meteohub,2019-12-08 09:12:05,
2019-12-08 10:17:06,50.2,48.6,29.52,SW,221,13,14,94,0.02,,,0.05,meteohub,2019-12-08 09:17:06,
2019-12-08 10:22:06,50.4,48.7,29.52,WSW,247,9,14,94,0.02,,,0.05,meteohub,2019-12-08 09:22:06,
2019-12-08 10:27:05,50.4,48.7,29.52,SW,217,6,18,94,0.02,,,0.05,meteohub,2019-12-08 09:27:05,
2019-12-08 10:32:06,50.5,48.9,29.52,SW,221,11,19,94,0.02,,,0.06,meteohub,2019-12-08 09:32:06,
2019-12-08 10:37:05,50.5,48.9,29.52,West,271,2,22,94,0.02,,,0.06,meteohub,2019-12-08 09:37:05,
2019-12-08 10:42:06,50.7,49.1,29.52,NW,321,6,23,94,0.02,,,0.06,meteohub,2019-12-08 09:42:06,
2019-12-08 10:47:06,50.7,49.1,29.52,WSW,255,13,23,94,0.02,,,0.06,meteohub,2019-12-08 09:47:06,
2019-12-08 10:52:06,50.9,49.3,29.53,South,191,10,23,94,0.02,,,0.06,meteohub,2019-12-08 09:52:06,
2019-12-08 10:57:05,50.9,49.3,29.52,WNW,287,7,19,94,0.02,,,0.06,meteohub,2019-12-08 09:57:05,
2019-12-08 11:02:07,51.1,49.1,29.53,West,279,7,19,93,0.02,,,0.06,meteohub,2019-12-08 10:02:07,
2019-12-08 11:07:04,51.1,49.1,29.53,SE,144,11,19,93,0.01,,,0.06,meteohub,2019-12-08 10:07:04,
2019-12-08 11:12:06,51.3,49.3,29.52,WSW,252,7,19,93,0.01,,,0.06,meteohub,2019-12-08 10:12:06,
2019-12-08 11:17:06,51.4,49.3,29.53,WSW,255,10,20,92,0.01,,,0.06,meteohub,2019-12-08 10:17:06,
2019-12-08 11:22:06,51.6,49.5,29.53,SW,225,11,20,92,0.01,,,0.06,meteohub,2019-12-08 10:22:06,
2019-12-08 11:27:06,51.6,49.1,29.53,West,278,12,20,91,0.01,,,0.06,meteohub,2019-12-08 10:27:06,
2019-12-08 11:32:06,51.8,49.3,29.52,SW,233,9,23,91,0.01,,,0.06,meteohub,2019-12-08 10:32:06,
2019-12-08 11:37:05,52,49.5,29.52,WSW,245,11,23,91,0,,,0.06,meteohub,2019-12-08 10:37:05,
2019-12-08 11:42:07,52,49.5,29.52,WSW,247,8,23,91,0,,,0.06,meteohub,2019-12-08 10:42:07,
2019-12-08 11:47:06,52.2,49.3,29.54,SW,236,9,20,90,0,,,0.06,meteohub,2019-12-08 10:47:06,
2019-12-08 11:52:06,52.3,49.5,29.53,WSW,238,6,20,90,0,,,0.06,meteohub,2019-12-08 10:52:06,
2019-12-08 11:57:05,52.2,49.3,29.53,West,275,5,25,90,0,,,0.06,meteohub,2019-12-08 10:57:05,
2019-12-08 12:02:07,52.2,49.3,29.52,WSW,238,13,25,90,0,,,0.06,meteohub,2019-12-08 11:02:07,
2019-12-08 12:07:04,52.2,49.3,29.52,West,259,13,16,90,0,,,0.06,meteohub,2019-12-08 11:07:04,
2019-12-08 12:12:06,52.2,49.3,29.52,West,272,5,16,90,0,,,0.06,meteohub,2019-12-08 11:12:06,
2019-12-08 12:17:07,52.2,49.1,29.52,West,278,9,16,89,0,,,0.06,meteohub,2019-12-08 11:17:07,
2019-12-08 12:22:07,52.3,48.6,29.53,WNW,293,6,20,87,0,,,0.06,meteohub,2019-12-08 11:22:07,
2019-12-08 12:27:06,52.3,48.6,29.53,NW,307,6,20,87,0,,,0.06,meteohub,2019-12-08 11:27:06,
2019-12-08 12:32:06,52.3,48,29.53,WSW,253,7,20,85,0,,,0.06,meteohub,2019-12-08 11:32:06,
2019-12-08 12:37:06,52.3,47.7,29.53,WSW,254,6,20,84,0,,,0.06,meteohub,2019-12-08 11:37:06,
2019-12-08 12:42:07,52.3,47.7,29.53,SW,236,10,20,84,0,,,0.06,meteohub,2019-12-08 11:42:07,
2019-12-08 12:47:06,52.3,47.7,29.53,NW,304,5,20,84,0,,,0.06,meteohub,2019-12-08 11:47:06,
2019-12-08 12:52:06,52.2,47.1,29.53,WSW,254,11,18,83,0,,,0.06,meteohub,2019-12-08 11:52:06,
2019-12-08 12:57:06,52,46.9,29.53,NNE,32,4,18,83,0,,,0.06,meteohub,2019-12-08 11:57:06,
2019-12-08 13:02:07,52,46.9,29.53,NW,315,5,16,83,0,,,0.06,meteohub,2019-12-08 12:02:07,
2019-12-08 13:07:06,51.6,46.2,29.53,West,278,8,16,82,0,,,0.06,meteohub,2019-12-08 12:07:06,
2019-12-08 13:12:06,51.6,46.6,29.53,SW,225,5,20,83,0,,,0.06,meteohub,2019-12-08 12:12:06,
2019-12-08 13:17:06,51.4,46.2,29.53,West,265,20,20,82,0,,,0.06,meteohub,2019-12-08 12:17:06,
2019-12-08 13:22:06,51.4,46.2,29.54,West,278,12,22,82,0,,,0.06,meteohub,2019-12-08 12:22:06,
2019-12-08 13:27:05,51.4,46.2,29.53,WSW,237,12,22,82,0,,,0.06,meteohub,2019-12-08 12:27:05,
2019-12-08 13:32:06,51.3,45.7,29.53,NW,306,10,22,81,0,,,0.06,meteohub,2019-12-08 12:32:06,
2019-12-08 13:37:05,51.3,45.7,29.53,WNW,283,9,19,81,0,,,0.06,meteohub,2019-12-08 12:37:05,
2019-12-08 13:42:06,51.3,45.7,29.53,NW,317,8,21,81,0,,,0.06,meteohub,2019-12-08 12:42:06,
2019-12-08 13:47:06,51.3,45.7,29.53,SW,236,12,21,81,0,,,0.06,meteohub,2019-12-08 12:47:06,
2019-12-08 13:52:06,51.4,45.5,29.53,SW,234,8,21,80,0,,,0.06,meteohub,2019-12-08 12:52:06,
2019-12-08 13:57:05,51.4,45.5,29.52,NNW,336,5,20,80,0,,,0.06,meteohub,2019-12-08 12:57:05,
2019-12-08 14:07:04,51.6,45,29.52,NW,317,6,22,78,0,,,0.06,meteohub,2019-12-08 13:07:04,
2019-12-08 14:12:06,51.6,45.3,29.52,West,261,16,22,79,0,,,0.06,meteohub,2019-12-08 13:12:06,
2019-12-08 14:17:06,51.6,45.3,29.52,NW,315,6,22,79,0,,,0.06,meteohub,2019-12-08 13:17:06,
2019-12-08 14:22:06,51.6,45.7,29.52,NW,313,9,20,80,0,,,0.06,meteohub,2019-12-08 13:22:06,
2019-12-08 14:27:05,51.4,45.5,29.52,WSW,239,5,20,80,0,,,0.06,meteohub,2019-12-08 13:27:05,
2019-12-08 14:32:06,51.3,45.3,29.52,SW,229,6,16,80,0,,,0.06,meteohub,2019-12-08 13:32:06,
2019-12-08 14:37:05,51.3,45,29.52,WNW,302,12,18,79,0,,,0.06,meteohub,2019-12-08 13:37:05,
2019-12-08 14:42:06,51.3,45,29.52,NW,305,7,18,79,0,,,0.06,meteohub,2019-12-08 13:42:06,
2019-12-08 14:47:06,51.4,44.8,29.51,NW,321,8,18,78,0,,,0.06,meteohub,2019-12-08 13:47:06,
2019-12-08 14:52:06,51.4,44.4,29.51,WSW,250,7,16,77,0,,,0.06,meteohub,2019-12-08 13:52:06,
2019-12-08 14:57:05,51.4,44.4,29.51,West,277,8,16,77,0,,,0.06,meteohub,2019-12-08 13:57:05,
2019-12-08 15:02:06,51.4,44.1,29.51,WNW,291,8,21,76,0,,,0.06,meteohub,2019-12-08 14:02:06,
2019-12-08 15:07:04,51.4,43.7,29.51,WNW,302,7,21,75,0,,,0.06,meteohub,2019-12-08 14:07:04,
2019-12-08 15:12:05,51.4,43.7,29.51,WNW,288,7,21,75,0,,,0.06,meteohub,2019-12-08 14:12:05,
2019-12-08 15:17:05,51.4,44.1,29.51,SW,216,6,23,76,0,,,0.06,meteohub,2019-12-08 14:17:05,
2019-12-08 15:22:06,51.3,43.5,29.50,WNW,282,6,23,75,0,,,0.06,meteohub,2019-12-08 14:22:06,
2019-12-08 15:27:05,51.1,43.5,29.51,WSW,241,8,20,75,0,,,0.06,meteohub,2019-12-08 14:27:05,
2019-12-08 15:32:06,51.1,43.7,29.51,NNW,332,7,13,76,0,,,0.06,meteohub,2019-12-08 14:32:06,
2019-12-08 15:37:05,51.1,43.7,29.51,SW,227,8,14,76,0,,,0.06,meteohub,2019-12-08 14:37:05,
2019-12-08 15:42:06,50.9,43.5,29.50,WSW,242,6,14,76,0,,,0.06,meteohub,2019-12-08 14:42:06,
2019-12-08 15:47:06,50.7,43.5,29.50,WSW,246,6,15,76,0,,,0.06,meteohub,2019-12-08 14:47:06,
2019-12-08 15:52:06,50.7,43.5,29.50,WSW,237,8,15,76,0,,,0.06,meteohub,2019-12-08 14:52:06,
2019-12-08 15:57:05,50.7,43.5,29.50,West,266,5,12,76,0,,,0.06,meteohub,2019-12-08 14:57:05,
2019-12-08 16:02:06,50.5,43.3,29.50,SW,216,7,15,76,0,,,0.06,meteohub,2019-12-08 15:02:06,
2019-12-08 16:07:04,50.5,43.5,29.50,SW,229,7,15,77,0,,,0.06,meteohub,2019-12-08 15:07:04,
2019-12-08 16:12:06,50.5,43.5,29.50,WNW,288,7,15,77,0,,,0.06,meteohub,2019-12-08 15:12:06,
2019-12-08 16:17:06,50.4,43.3,29.50,West,265,8,13,77,0,,,0.06,meteohub,2019-12-08 15:17:06,
2019-12-08 16:22:06,50.4,43.3,29.50,West,264,6,14,77,0,,,0.06,meteohub,2019-12-08 15:22:06,
2019-12-08 16:27:05,50.4,43.7,29.50,North,350,7,15,78,0,,,0.06,meteohub,2019-12-08 15:27:05,
2019-12-08 16:32:06,50.2,43.5,29.50,WSW,238,5,15,78,0,,,0.06,meteohub,2019-12-08 15:32:06,
2019-12-08 16:37:05,50.2,43.5,29.49,WSW,247,2,14,78,0,,,0.06,meteohub,2019-12-08 15:37:05,
2019-12-08 16:42:07,50,43.3,29.49,WSW,247,8,14,78,0,,,0.06,meteohub,2019-12-08 15:42:07,
2019-12-08 16:47:06,50,43.3,29.49,West,270,5,15,78,0,,,0.06,meteohub,2019-12-08 15:47:06,
2019-12-08 16:52:06,49.8,43.2,29.49,WSW,248,6,16,78,0,,,0.06,meteohub,2019-12-08 15:52:06,
2019-12-08 16:57:05,49.6,43.3,29.49,West,273,5,16,79,0,,,0.06,meteohub,2019-12-08 15:57:05,
2019-12-08 17:02:07,49.6,43.3,29.48,WSW,252,7,16,79,0,,,0.06,meteohub,2019-12-08 16:02:07,
2019-12-08 17:07:04,49.5,43.2,29.47,SSE,162,10,13,79,0,,,0.06,meteohub,2019-12-08 16:07:04,
2019-12-08 17:12:05,49.5,43.2,29.47,WSW,248,4,13,79,0,,,0.06,meteohub,2019-12-08 16:12:05,
2019-12-08 17:17:05,49.5,43.2,29.47,SW,226,6,13,79,0,,,0.06,meteohub,2019-12-08 16:17:05,
2019-12-08 17:22:06,49.5,43.2,29.47,SSW,194,5,13,79,0,,,0.06,meteohub,2019-12-08 16:22:06,
2019-12-08 17:27:05,49.3,42.8,29.47,SW,215,9,13,78,0,,,0.06,meteohub,2019-12-08 16:27:05,
2019-12-08 17:32:06,49.5,42.8,29.48,SSW,194,10,14,78,0,,,0.06,meteohub,2019-12-08 16:32:06,
2019-12-08 17:37:05,49.5,42.8,29.48,West,267,5,19,78,0,,,0.06,meteohub,2019-12-08 16:37:05,
2019-12-08 17:42:06,49.5,42.8,29.48,SW,234,9,19,78,0,,,0.06,meteohub,2019-12-08 16:42:06,
2019-12-08 17:47:05,49.5,42.8,29.47,SW,227,7,19,78,0,,,0.06,meteohub,2019-12-08 16:47:05,
2019-12-08 17:52:06,49.6,43,29.47,South,186,9,19,78,0,,,0.06,meteohub,2019-12-08 16:52:06,
2019-12-08 17:57:05,49.6,43,29.47,WSW,254,19,15,78,0,,,0.06,meteohub,2019-12-08 16:57:05,
2019-12-08 18:02:07,49.8,43.2,29.47,WSW,256,5,19,78,0,,,0.06,meteohub,2019-12-08 17:02:07,
2019-12-08 18:07:04,49.8,43.2,29.47,WSW,238,8,19,78,0,,,0.06,meteohub,2019-12-08 17:07:04,
2019-12-08 18:12:05,49.8,43.2,29.47,SW,230,5,19,78,0,,,0.06,meteohub,2019-12-08 17:12:05,
2019-12-08 18:17:06,49.8,43.2,29.47,SW,229,11,15,78,0,,,0.06,meteohub,2019-12-08 17:17:06,
2019-12-08 18:22:06,49.8,43.2,29.47,WNW,288,5,15,78,0,,,0.06,meteohub,2019-12-08 17:22:06,
2019-12-08 18:27:05,49.8,43.2,29.47,West,263,7,15,78,0,,,0.06,meteohub,2019-12-08 17:27:05,
2019-12-08 18:32:06,49.8,43.2,29.47,West,260,11,15,78,0,,,0.06,meteohub,2019-12-08 17:32:06,
2019-12-08 18:37:05,49.8,43.2,29.46,West,265,9,13,78,0,,,0.06,meteohub,2019-12-08 17:37:05,
2019-12-08 18:42:06,49.8,43.5,29.46,SW,228,9,12,79,0,,,0.06,meteohub,2019-12-08 17:42:06,
2019-12-08 18:47:06,50,43.3,29.46,WSW,246,6,15,78,0,,,0.06,meteohub,2019-12-08 17:47:06,
2019-12-08 18:52:04,50,43.3,29.46,North,5,6,18,78,0,,,0.06,meteohub,2019-12-08 17:52:04,
2019-12-08 18:57:04,50.2,43.5,29.46,West,280,8,18,78,0,,,0.06,meteohub,2019-12-08 17:57:04,
2019-12-08 19:02:05,50.2,43.5,29.46,NW,323,7,18,78,0,,,0.06,meteohub,2019-12-08 18:02:05,
2019-12-08 19:07:04,50,44.4,29.47,WSW,248,10,21,81,0,,,0.06,meteohub,2019-12-08 18:07:04,
2019-12-08 19:12:05,49.1,41.9,29.46,WSW,245,7,26,76,0,,,0.06,meteohub,2019-12-08 18:12:05,
2019-12-08 19:17:05,48.4,42.4,29.46,WNW,290,7,26,80,0.01,,,0.06,meteohub,2019-12-08 18:17:05,
2019-12-08 19:22:06,48,42.4,29.46,WSW,257,6,26,81,0.01,,,0.06,meteohub,2019-12-08 18:22:06,
2019-12-08 19:27:04,48.4,43.5,29.46,South,187,7,23,83,0.01,,,0.06,meteohub,2019-12-08 18:27:04,
2019-12-08 19:32:05,48.4,43.2,29.45,SW,223,2,23,82,0.01,,,0.06,meteohub,2019-12-08 18:32:05,
2019-12-08 19:37:03,48.6,43,29.45,SW,230,6,14,81,0.01,,,0.06,meteohub,2019-12-08 18:37:03,
2019-12-08 19:42:06,48.6,42.3,29.45,WSW,242,9,18,79,0.01,,,0.06,meteohub,2019-12-08 18:42:06,
2019-12-08 19:47:04,48.6,42.1,29.44,WSW,250,10,18,78,0.01,,,0.06,meteohub,2019-12-08 18:47:04,
2019-12-08 19:52:05,48.6,42.1,29.44,WSW,251,9,14,78,0.01,,,0.06,meteohub,2019-12-08 18:52:05,
2019-12-08 19:57:04,48.4,41.9,29.44,SW,236,6,18,78,0.01,,,0.06,meteohub,2019-12-08 18:57:04,
2019-12-08 20:02:06,48.4,41.9,29.44,SSW,192,14,18,78,0.01,,,0.06,meteohub,2019-12-08 19:02:06,
2019-12-08 20:07:04,48.2,42.1,29.44,WSW,255,12,18,79,0.01,,,0.06,meteohub,2019-12-08 19:07:04,
2019-12-08 20:12:05,48,41.9,29.44,WSW,244,9,18,79,0.01,,,0.06,meteohub,2019-12-08 19:12:05,
2019-12-08 20:17:04,48,41.9,29.44,West,263,9,18,79,0,,,0.06,meteohub,2019-12-08 19:17:04,
2019-12-08 20:22:05,48,42.1,29.44,West,265,7,22,80,0,,,0.06,meteohub,2019-12-08 19:22:05,
2019-12-08 20:27:03,47.8,41.9,29.44,SW,227,7,22,80,0,,,0.06,meteohub,2019-12-08 19:27:03,
2019-12-08 20:32:05,47.8,41.9,29.44,WNW,288,6,22,80,0,,,0.06,meteohub,2019-12-08 19:32:05,
2019-12-08 20:37:03,47.7,41.7,29.44,SW,223,8,16,80,0,,,0.06,meteohub,2019-12-08 19:37:03,
2019-12-08 20:42:06,47.7,41.7,29.44,WSW,243,9,15,80,0,,,0.06,meteohub,2019-12-08 19:42:06,
2019-12-08 20:47:04,47.5,41.5,29.44,SW,227,5,20,80,0,,,0.06,meteohub,2019-12-08 19:47:04,
2019-12-08 20:52:04,47.3,41.4,29.44,WSW,248,8,20,80,0,,,0.06,meteohub,2019-12-08 19:52:04,
2019-12-08 20:57:03,47.1,41.4,29.44,WSW,252,7,16,80,0,,,0.06,meteohub,2019-12-08 19:57:03,
2019-12-08 21:02:05,47.1,41.4,29.44,WNW,294,9,16,80,0,,,0.06,meteohub,2019-12-08 20:02:05,
2019-12-08 21:07:03,46.9,41.2,29.44,WSW,243,4,18,80,0,,,0.06,meteohub,2019-12-08 20:07:03,
2019-12-08 21:12:05,46.8,41.2,29.44,SW,236,5,18,81,0,,,0.06,meteohub,2019-12-08 20:12:05,
2019-12-08 21:17:04,46.8,41.2,29.44,WSW,242,3,18,81,0,,,0.06,meteohub,2019-12-08 20:17:04,
2019-12-08 21:22:06,46.6,41,29.44,SW,219,3,18,81,0,,,0.06,meteohub,2019-12-08 20:22:06,
2019-12-08 21:27:04,46.4,40.8,29.44,West,262,5,14,81,0,,,0.06,meteohub,2019-12-08 20:27:04,
2019-12-08 21:32:05,46.2,41,29.44,West,280,2,14,82,0,,,0.06,meteohub,2019-12-08 20:32:05,
2019-12-08 21:37:04,46.2,41,29.44,SW,223,7,16,82,0,,,0.06,meteohub,2019-12-08 20:37:04,
2019-12-08 21:42:05,46,40.8,29.44,SW,227,8,16,82,0,,,0.06,meteohub,2019-12-08 20:42:05,
2019-12-08 21:47:04,45.9,40.6,29.44,SW,235,7,15,82,0,,,0.06,meteohub,2019-12-08 20:47:04,
2019-12-08 21:52:05,45.9,41,29.44,SW,231,8,21,83,0,,,0.06,meteohub,2019-12-08 20:52:05,
2019-12-08 21:57:03,45.9,41,29.44,SW,232,7,21,83,0,,,0.06,meteohub,2019-12-08 20:57:03,
2019-12-08 22:02:05,45.9,41.4,29.44,WSW,256,7,21,84,0,,,0.06,meteohub,2019-12-08 21:02:05,
2019-12-08 22:07:04,45.9,41.4,29.44,WSW,246,9,15,84,0,,,0.06,meteohub,2019-12-08 21:07:04,
2019-12-08 22:12:05,45.9,41.4,29.44,SSW,209,7,19,84,0,,,0.06,meteohub,2019-12-08 21:12:05,
2019-12-08 22:17:05,45.9,41.4,29.44,WSW,246,10,19,84,0,,,0.06,meteohub,2019-12-08 21:17:05,
2019-12-08 22:22:06,46,41.5,29.44,WSW,252,9,19,84,0,,,0.06,meteohub,2019-12-08 21:22:06,
2019-12-08 22:27:03,46,41.5,29.44,SSW,207,12,15,84,0,,,0.06,meteohub,2019-12-08 21:27:03,
2019-12-08 22:32:05,46.2,41.7,29.44,WSW,252,7,15,84,0,,,0.06,meteohub,2019-12-08 21:32:05,
2019-12-08 22:37:04,46.2,41.7,29.43,WSW,243,8,20,84,0,,,0.06,meteohub,2019-12-08 21:37:04,
2019-12-08 22:42:06,46.2,41.7,29.44,SSW,205,7,20,84,0,,,0.06,meteohub,2019-12-08 21:42:06,
2019-12-08 22:47:04,46.2,41.4,29.43,SW,230,8,16,83,0,,,0.06,meteohub,2019-12-08 21:47:04,
2019-12-08 22:52:05,46.2,41.4,29.43,West,261,8,16,83,0,,,0.06,meteohub,2019-12-08 21:52:05,
2019-12-08 22:57:03,46.2,41.4,29.43,WSW,243,5,16,83,0,,,0.06,meteohub,2019-12-08 21:57:03,
2019-12-08 23:02:06,46.2,41,29.42,WSW,242,6,16,82,0,,,0.06,meteohub,2019-12-08 22:02:06,
2019-12-08 23:07:04,46.2,41,29.43,SW,226,10,19,82,0,,,0.06,meteohub,2019-12-08 22:07:04,
2019-12-08 23:12:05,46.2,41,29.43,WNW,298,4,19,82,0,,,0.06,meteohub,2019-12-08 22:12:05,
2019-12-08 23:17:04,46.2,41,29.43,WSW,248,5,14,82,0,,,0.06,meteohub,2019-12-08 22:17:04,
2019-12-08 23:22:05,46.2,41,29.43,SW,220,5,19,82,0,,,0.06,meteohub,2019-12-08 22:22:05,
2019-12-08 23:27:04,46.2,41,29.43,SW,217,9,19,82,0,,,0.06,meteohub,2019-12-08 22:27:04,
2019-12-08 23:32:05,46.2,41,29.43,WSW,242,5,19,82,0,,,0.06,meteohub,2019-12-08 22:32:05,
2019-12-08 23:37:03,46.2,41,29.42,WSW,257,2,14,82,0,,,0.06,meteohub,2019-12-08 22:37:03,
2019-12-08 23:42:06,46,40.8,29.42,SW,231,4,14,82,0,,,0.06,meteohub,2019-12-08 22:42:06,
2019-12-08 23:47:04,46,40.8,29.42,SSW,208,10,13,82,0,,,0.06,meteohub,2019-12-08 22:47:04,
2019-12-08 23:52:04,46,40.8,29.42,SSW,201,10,13,82,0,,,0.06,meteohub,2019-12-08 22:52:04,
2019-12-08 23:57:03,45.9,41,29.42,SSE,155,5,13,83,0,,,0.06,meteohub,2019-12-08 22:57:03,